Date,TemperatureHighF,TemperatureAvgF,TemperatureLowF,DewpointHighF,DewpointAvgF,DewpointLowF,HumidityHigh,HumidityAvg,HumidityLow,PressureMaxIn,PressureMinIn,WindSpeedMaxMPH,WindSpeedAvgMPH,GustSpeedMaxMPH,PrecipitationSumIn
2013-2-3,66,58,43,49,41,30,76,54,32,30.31,29.97,18,6,18,0.00
2013-2-4,74,60,52,56,51,47,89,74,42,29.97,29.77,26,6,26,0.01
2013-2-5,77,62,47,48,42,36,85,51,26,29.97,29.85,11,2,11,0.01
2013-2-6,74,62,55,58,53,43,89,73,53,29.93,29.77,20,4,20,0.00
2013-2-7,79,63,54,61,49,36,92,65,26,30.06,29.84,21,5,21,0.00
2013-2-8,65,53,42,43,33,26,76,50,27,30.20,30.05,21,5,21,0.00
2013-2-9,64,55,49,62,49,28,92,83,41,30.06,29.75,25,8,25,0.00
2013-2-10,65,57,50,62,37,25,91,51,25,29.99,29.72,22,4,22,1.14
2013-2-11,54,50,46,45,40,32,89,68,45,30.08,29.93,18,3,18,0.04
2013-2-12,68,53,39,55,39,23,92,66,24,30.06,29.83,25,5,25,0.02
2013-2-13,59,39,32,34,28,24,86,68,29,30.15,30.03,14,2,14,0.00
2013-2-14,68,51,37,38,32,25,75,51,27,30.12,29.98,18,3,18,0.00
2013-2-15,54,45,34,38,33,22,74,63,53,30.39,30.06,17,4,17,0.00
2013-2-16,63,46,27,30,25,19,74,47,26,30.47,30.22,13,2,13,0.00
2013-2-17,66,53,40,49,35,24,79,52,37,30.22,29.91,32,9,32,0.00
2013-2-18,77,62,51,55,42,22,85,54,14,30.06,29.82,29,10,29,0.00
2013-2-19,62,53,42,31,29,25,58,41,26,30.22,30.02,17,5,21,0.00
2013-2-20,63,53,48,60,45,23,92,77,31,30.06,29.59,28,8,29,0.03
2013-2-21,70,61,49,61,38,20,90,49,17,29.82,29.55,28,7,28,0.00
2013-2-22,59,47,37,35,31,24,86,56,36,30.03,29.79,16,5,16,0.00
2013-2-23,69,50,31,38,29,22,79,49,19,30.07,29.88,19,2,19,0.00
2013-2-24,69,55,40,55,45,33,86,69,48,29.90,29.54,30,8,30,0.00
2013-2-25,60,48,39,56,32,21,86,55,30,29.86,29.52,40,10,40,0.01
2013-2-26,65,48,33,29,25,21,68,44,21,29.98,29.84,16,3,16,0.00
2013-2-27,57,48,38,32,23,18,69,38,32,30.24,29.85,22,4,23,0.00
2013-2-28,57,44,34,30,23,18,67,46,26,30.34,30.21,17,3,17,0.00